Time;durP1;ratioP1;P1;durP2;ratioP2;P2;SDS_P1;SDS_P2;PMS_P1;PMS_P2;Temp;Humidity;BMP_temperature;BMP_pressure;BME280_temperature;BME280_humidity;BME280_pressure;Samples;Min_cycle;Max_cycle;Signal;HPM_P1;HPM_P2
2022/04/18 00:00:16;;;;;;;4.38;2.53;;;;;;;9.96;44.46;100263.75;1088197;54;20031;-83
2022/04/18 00:01:18;;;;;;;5.65;2.90;;;;;;;9.97;44.35;100263.59;1088233;54;20045;-82
2022/04/18 00:02:22;;;;;;;5.25;2.75;;;;;;;9.98;44.49;100267.13;1088026;54;20034;-82
2022/04/18 00:03:26;;;;;;;5.00;2.30;;;;;;;9.98;44.53;100264.47;1087773;54;20035;-85
2022/04/18 00:04:28;;;;;;;5.13;2.53;;;;;;;9.89;44.56;100268.78;1088160;54;20022;-83
2022/04/18 00:05:32;;;;;;;5.60;2.60;;;;;;;9.86;44.79;100265.53;1088166;54;20034;-85
2022/04/18 00:06:36;;;;;;;5.13;2.40;;;;;;;9.78;45.02;100266.19;1088177;54;20048;-80
2022/04/18 00:07:40;;;;;;;5.25;2.88;;;;;;;9.72;45.08;100262.25;1088208;54;20213;-83
2022/04/18 00:08:41;;;;;;;5.20;2.85;;;;;;;9.62;45.23;100270.22;1088106;54;20034;-82
2022/04/18 00:09:45;;;;;;;5.13;2.40;;;;;;;9.56;45.36;100264.56;1088160;54;20749;-84
2022/04/18 00:10:47;;;;;;;6.18;2.92;;;;;;;9.50;45.45;100261.44;1091203;46;20031;-82
2022/04/18 00:11:51;;;;;;;4.50;2.50;;;;;;;9.41;45.82;100261.38;1089607;39;20197;-82
2022/04/18 00:12:56;;;;;;;6.03;2.90;;;;;;;9.38;45.82;100254.50;1088201;54;20110;-82
2022/04/18 00:14:00;;;;;;;5.78;3.22;;;;;;;9.33;45.69;100265.56;1090932;46;20094;-82
2022/04/18 00:15:02;;;;;;;5.38;2.78;;;;;;;9.33;45.84;100248.72;1088134;54;20034;-82
2022/04/18 00:16:07;;;;;;;7.93;3.17;;;;;;;9.29;45.85;100255.28;1089583;46;20049;-81
2022/04/18 00:17:09;;;;;;;5.72;2.83;;;;;;;9.20;46.15;100249.75;1088182;54;20042;-83
2022/04/18 00:18:13;;;;;;;7.25;3.60;;;;;;;9.16;46.17;100248.31;1088197;54;20042;-83
2022/04/18 00:19:15;;;;;;;5.97;3.50;;;;;;;9.12;46.84;100246.91;1087802;54;20030;-81
2022/04/18 00:20:19;;;;;;;5.78;3.00;;;;;;;8.97;47.21;100251.72;1087847;54;20027;-81
2022/04/18 00:21:20;;;;;;;6.07;3.15;;;;;;;8.88;47.56;100253.31;1088169;54;20014;-82
2022/04/18 00:22:25;;;;;;;5.50;2.95;;;;;;;8.84;47.73;100256.38;1088204;54;20035;-82
2022/04/18 00:23:27;;;;;;;6.65;3.00;;;;;;;8.77;48.11;100264.06;1088140;54;20094;-82
2022/04/18 00:24:31;;;;;;;7.32;3.42;;;;;;;8.79;48.06;100264.75;1089932;46;20026;-83
2022/04/18 00:25:33;;;;;;;6.50;3.15;;;;;;;8.77;47.96;100258.72;1087741;46;20061;-82
2022/04/18 00:26:39;;;;;;;5.55;3.10;;;;;;;8.82;47.76;100253.84;1087791;54;20027;-81
2022/04/18 00:27:41;;;;;;;5.13;2.63;;;;;;;8.79;48.14;100264.75;1087785;54;20030;-82
2022/04/18 00:28:48;;;;;;;9.90;3.13;;;;;;;8.81;47.97;100260.16;1087701;54;20098;-81
2022/04/18 00:29:52;;;;;;;7.97;3.47;;;;;;;8.76;48.09;100259.69;1087946;46;20042;-82
2022/04/18 00:30:54;;;;;;;4.85;2.83;;;;;;;8.76;48.16;100265.03;1087740;54;20042;-82
2022/04/18 00:31:58;;;;;;;5.82;3.42;;;;;;;8.76;47.87;100267.69;1087760;54;20030;-83
2022/04/18 00:33:02;;;;;;;5.45;3.35;;;;;;;8.80;47.79;100262.94;1087728;54;20030;-82
2022/04/18 00:34:04;;;;;;;7.00;3.20;;;;;;;8.79;47.96;100270.09;1087685;54;20041;-81
2022/04/18 00:35:09;;;;;;;5.35;2.70;;;;;;;8.83;47.83;100262.72;1090272;39;20267;-81
2022/04/18 00:36:11;;;;;;;6.13;2.70;;;;;;;8.86;47.83;100265.97;1087690;54;20041;-82
2022/04/18 00:37:15;;;;;;;6.80;3.28;;;;;;;8.82;47.95;100259.19;1087695;54;20030;-81
2022/04/18 00:38:16;;;;;;;7.05;2.95;;;;;;;8.85;48.07;100256.25;1087684;54;20030;-81
2022/04/18 00:39:21;;;;;;;5.90;3.20;;;;;;;8.83;47.88;100258.19;1087714;54;20030;-83
2022/04/18 00:40:26;;;;;;;5.45;2.78;;;;;;;8.82;48.16;100259.19;1087764;54;20030;-82
2022/04/18 00:41:27;;;;;;;5.70;2.95;;;;;;;8.82;48.23;100261.84;1087738;54;20034;-81
2022/04/18 00:42:32;;;;;;;6.05;2.67;;;;;;;8.82;48.08;100263.69;1089426;39;20717;-82
2022/04/18 00:43:41;;;;;;;5.57;3.05;;;;;;;8.72;48.69;100260.91;1087724;54;20038;-81
2022/04/18 00:44:48;;;;;;;5.75;3.08;;;;;;;8.70;48.86;100260.19;1088086;54;20030;-81
2022/04/18 00:45:50;;;;;;;4.82;2.67;;;;;;;8.73;48.37;100251.94;1088192;54;20023;-82
2022/04/18 00:46:54;;;;;;;5.00;2.63;;;;;;;8.74;48.44;100253.66;1088182;54;20773;-82
2022/04/18 00:47:56;;;;;;;6.15;3.15;;;;;;;8.72;48.45;100251.13;1088166;54;20015;-84
2022/04/18 00:49:00;;;;;;;5.75;2.70;;;;;;;8.70;48.46;100247.72;1088113;54;20014;-82
2022/04/18 00:50:02;;;;;;;5.47;3.00;;;;;;;8.58;48.83;100249.59;1088199;54;20035;-82
2022/04/18 00:51:07;;;;;;;6.10;2.78;;;;;;;8.66;48.53;100250.78;1089377;46;20019;-83
2022/04/18 00:52:09;;;;;;;5.60;2.60;;;;;;;8.62;48.08;100244.00;1088136;54;20094;-83
2022/04/18 00:53:13;;;;;;;6.22;2.92;;;;;;;8.56;48.53;100246.22;1088177;54;20041;-81
2022/04/18 00:54:15;;;;;;;5.07;3.17;;;;;;;8.37;48.91;100244.16;1088072;54;20057;-81
2022/04/18 00:55:20;;;;;;;6.00;3.00;;;;;;;8.40;48.86;100251.09;1088172;54;20038;-82
2022/04/18 00:56:22;;;;;;;6.15;3.17;;;;;;;8.42;48.58;100249.13;1087870;54;20042;-82
2022/04/18 00:57:27;;;;;;;4.63;2.63;;;;;;;8.43;48.70;100245.47;1088199;54;20026;-82
2022/04/18 00:58:29;;;;;;;5.32;2.92;;;;;;;8.47;48.52;100241.63;1088207;54;20023;-83
2022/04/18 00:59:34;;;;;;;4.82;2.53;;;;;;;8.51;48.21;100236.91;1087735;54;20034;-81
2022/04/18 01:00:38;;;;;;;4.88;2.70;;;;;;;8.57;48.10;100244.38;1087969;54;20102;-84
2022/04/18 01:01:42;;;;;;;4.53;2.25;;;;;;;8.60;47.71;100243.31;1088149;54;20042;-83
2022/04/18 01:02:44;;;;;;;4.57;2.38;;;;;;;8.63;47.57;100240.34;1088168;54;20033;-83
2022/04/18 01:03:49;;;;;;;3.92;2.10;;;;;;;8.63;47.42;100243.03;1088178;54;20030;-81
2022/04/18 01:04:53;;;;;;;4.50;2.00;;;;;;;8.66;47.23;100248.09;1088072;54;20030;-80
2022/04/18 01:05:54;;;;;;;5.28;2.45;;;;;;;8.66;46.99;100240.13;1088136;54;20018;-82
2022/04/18 01:07:02;;;;;;;4.35;1.80;;;;;;;8.67;46.60;100239.16;1089551;47;20041;-83
2022/04/18 01:08:06;;;;;;;3.60;1.80;;;;;;;8.64;46.20;100242.06;1095108;31;20724;-82
2022/04/18 01:09:10;;;;;;;4.93;2.15;;;;;;;8.54;46.30;100240.16;1088079;54;20081;-81
2022/04/18 01:10:11;;;;;;;4.28;2.03;;;;;;;8.50;46.08;100236.03;1088102;54;20031;-82
2022/04/18 01:11:16;;;;;;;3.70;2.05;;;;;;;8.52;46.15;100230.59;1088498;47;20753;-81
2022/04/18 01:12:18;;;;;;;4.10;2.05;;;;;;;8.53;46.06;100235.78;1089795;47;20034;-83
2022/04/18 01:13:22;;;;;;;3.88;2.03;;;;;;;8.55;45.78;100233.00;1088143;54;20042;-82
2022/04/18 01:14:24;;;;;;;4.20;1.80;;;;;;;8.54;45.92;100228.66;1088068;54;20034;-82
2022/04/18 01:15:28;;;;;;;3.88;1.75;;;;;;;8.54;45.81;100226.81;1087885;54;20851;-84
2022/04/18 01:16:32;;;;;;;3.72;1.83;;;;;;;8.57;45.76;100226.59;1087617;54;20689;-82
2022/04/18 01:17:37;;;;;;;4.32;2.00;;;;;;;8.57;45.54;100226.59;1088067;54;20057;-84
2022/04/18 01:18:38;;;;;;;4.38;1.88;;;;;;;8.58;45.50;100224.75;1090078;47;20041;-81
2022/04/18 01:19:42;;;;;;;4.60;1.92;;;;;;;8.61;45.49;100231.63;1094131;39;20582;-82
2022/04/18 01:20:47;;;;;;;6.82;1.85;;;;;;;8.56;45.17;100232.88;1088111;54;20042;-81
2022/04/18 01:21:51;;;;;;;5.10;1.95;;;;;;;8.53;45.17;100226.97;1091025;39;20672;-81
2022/04/18 01:22:53;;;;;;;4.47;1.77;;;;;;;8.53;45.09;100225.13;1088073;54;20039;-82
2022/04/18 01:24:00;;;;;;;3.85;1.63;;;;;;;8.53;45.15;100222.47;1088029;54;20030;-82
2022/04/18 01:29:06;;;;;;;4.93;1.77;;;;;;;8.51;45.13;100221.75;1087987;54;20049;-82
2022/04/18 01:30:08;;;;;;;3.08;1.48;;;;;;;8.55;44.80;100225.00;1088040;54;20053;-82
2022/04/18 01:31:12;;;;;;;3.22;1.42;;;;;;;8.60;44.90;100220.16;1088063;54;20026;-83
2022/04/18 01:32:13;;;;;;;3.63;1.83;;;;;;;8.64;44.62;100218.06;1088741;39;20684;-83
2022/04/18 01:33:18;;;;;;;4.22;1.95;;;;;;;8.36;45.41;100223.00;1087697;54;20041;-82
2022/04/18 01:34:19;;;;;;;5.07;2.33;;;;;;;8.32;45.75;100216.22;1087975;54;20030;-82
2022/04/18 01:35:23;;;;;;;4.75;2.13;;;;;;;8.41;45.78;100218.97;1087993;54;20031;-83
2022/04/18 01:36:31;;;;;;;6.05;1.92;;;;;;;8.35;45.92;100224.81;1088036;54;20057;-83
2022/04/18 01:37:36;;;;;;;3.92;1.88;;;;;;;8.46;45.53;100220.41;1088049;54;20799;-82
2022/04/18 01:38:40;;;;;;;4.15;1.75;;;;;;;8.55;45.42;100222.34;1088039;54;20126;-82
2022/04/18 01:39:42;;;;;;;5.22;1.77;;;;;;;8.54;45.13;100218.84;1087967;54;20042;-82
2022/04/18 01:40:46;;;;;;;3.33;1.73;;;;;;;8.52;45.33;100211.94;1089424;47;20042;-82
2022/04/18 01:41:47;;;;;;;3.90;1.95;;;;;;;8.51;45.66;100219.06;1087797;54;20034;-84
2022/04/18 01:42:51;;;;;;;4.85;2.08;;;;;;;8.58;45.59;100212.28;1087592;54;20214;-83
2022/04/18 01:43:53;;;;;;;4.85;2.53;;;;;;;8.47;46.05;100215.00;1088796;47;20042;-81
2022/04/18 01:44:57;;;;;;;6.47;2.60;;;;;;;8.43;46.13;100219.69;1087886;47;20030;-81
2022/04/18 01:45:59;;;;;;;5.32;2.63;;;;;;;8.46;46.30;100218.59;1087633;54;20041;-81
2022/04/18 01:47:03;;;;;;;5.25;2.90;;;;;;;8.45;46.34;100219.56;1087583;54;20050;-83
2022/04/18 01:48:06;;;;;;;5.35;2.58;;;;;;;8.52;46.31;100211.94;1089463;39;20685;-82
2022/04/18 01:49:10;;;;;;;4.88;2.40;;;;;;;8.57;46.31;100215.06;1087549;54;20026;-83
2022/04/18 01:50:11;;;;;;;4.97;2.00;;;;;;;8.58;46.20;100212.28;1087596;54;20030;-83
2022/04/18 01:51:16;;;;;;;4.65;2.15;;;;;;;8.55;46.20;100212.53;1087604;54;20035;-83
2022/04/18 01:52:20;;;;;;;4.53;2.10;;;;;;;8.60;46.38;100208.66;1087741;54;20035;-83
2022/04/18 01:53:25;;;;;;;4.78;2.40;;;;;;;8.60;46.45;100204.16;1087637;54;20054;-82
2022/04/18 01:54:30;;;;;;;4.85;2.25;;;;;;;8.59;46.16;100207.78;1087888;54;20038;-82
2022/04/18 01:55:32;;;;;;;4.28;2.03;;;;;;;8.61;46.27;100199.66;1087980;54;20041;-82
2022/04/18 01:56:36;;;;;;;5.82;2.20;;;;;;;8.63;46.33;100206.56;1087778;54;20030;-82
2022/04/18 01:57:37;;;;;;;3.67;1.50;;;;;;;8.66;46.22;100208.13;1087939;54;20046;-82
2022/04/18 01:58:42;;;;;;;4.95;1.92;;;;;;;8.59;46.01;100202.47;1087947;54;20042;-83
2022/04/18 01:59:44;;;;;;;4.32;2.03;;;;;;;8.59;46.27;100197.13;1087886;54;20034;-81
2022/04/18 02:00:48;;;;;;;4.03;1.80;;;;;;;8.61;46.31;100199.66;1088812;39;20700;-82
2022/04/18 02:01:50;;;;;;;5.00;2.20;;;;;;;8.66;46.06;100192.97;1089544;39;20613;-82
2022/04/18 02:02:54;;;;;;;5.10;2.17;;;;;;;8.61;45.69;100192.53;1088319;54;20069;-82
2022/04/18 02:03:55;;;;;;;5.18;2.28;;;;;;;8.57;45.70;100199.94;1088281;54;20030;-82
2022/04/18 02:05:00;;;;;;;4.78;2.13;;;;;;;8.55;45.57;100193.03;1088353;54;20718;-83
2022/04/18 02:06:02;;;;;;;5.20;2.30;;;;;;;8.46;45.70;100197.28;1088396;54;20041;-82
2022/04/18 02:07:09;;;;;;;4.05;2.20;;;;;;;8.46;45.68;100194.63;1088075;54;20042;-82
2022/04/18 02:08:14;;;;;;;3.97;2.00;;;;;;;8.45;45.60;100206.25;1088027;54;20062;-81
2022/04/18 02:09:18;;;;;;;4.85;2.47;;;;;;;8.49;45.51;100199.72;1088316;54;20030;-81
2022/04/18 02:10:20;;;;;;;4.97;1.80;;;;;;;8.44;45.37;100201.88;1088414;54;20098;-81
2022/04/18 02:11:24;;;;;;;5.57;2.47;;;;;;;8.44;45.30;100199.22;1088358;54;20030;-81
2022/04/18 02:12:25;;;;;;;4.10;2.08;;;;;;;8.41;45.31;100202.13;1089864;46;20038;-82
2022/04/18 02:13:30;;;;;;;5.13;2.00;;;;;;;8.45;44.98;100200.09;1088394;54;20037;-82
2022/04/18 02:14:31;;;;;;;4.57;2.08;;;;;;;8.42;45.07;100195.81;1088314;54;20035;-82
2022/04/18 02:15:35;;;;;;;4.82;2.15;;;;;;;8.44;45.32;100188.56;1088329;54;20034;-82
2022/04/18 02:16:40;;;;;;;5.25;2.40;;;;;;;8.23;46.27;100191.19;1088400;46;20050;-81
2022/04/18 02:17:41;;;;;;;4.55;2.40;;;;;;;8.32;46.43;100195.75;1088443;54;20030;-84
2022/04/18 02:18:45;;;;;;;4.97;2.28;;;;;;;8.34;46.18;100192.97;1095516;39;20950;-82
2022/04/18 02:19:48;;;;;;;7.43;2.22;;;;;;;8.34;46.05;100190.28;1088343;54;20034;-80
2022/04/18 02:20:52;;;;;;;4.05;2.00;;;;;;;8.35;45.82;100189.31;1089831;46;20110;-83
2022/04/18 02:21:53;;;;;;;6.25;2.20;;;;;;;8.28;45.74;100183.66;1088393;54;20030;-82
2022/04/18 02:22:58;;;;;;;4.47;2.10;;;;;;;8.28;45.45;100197.84;1088022;54;20031;-81
2022/04/18 02:24:02;;;;;;;3.63;2.00;;;;;;;8.20;45.50;100202.94;1087938;54;20050;-83
2022/04/18 02:25:08;;;;;;;5.43;2.53;;;;;;;8.06;45.35;100190.75;1087909;54;20038;-81
2022/04/18 02:26:10;;;;;;;5.07;2.50;;;;;;;7.93;45.70;100196.25;1087953;54;20030;-80
2022/04/18 02:27:14;;;;;;;5.43;2.78;;;;;;;7.87;45.70;100190.56;1087930;54;20034;-81
2022/04/18 02:28:18;;;;;;;5.72;2.90;;;;;;;7.83;45.41;100187.31;1087932;54;20038;-82
2022/04/18 02:29:20;;;;;;;4.38;2.55;;;;;;;7.83;45.62;100195.28;1090899;39;20615;-83
2022/04/18 02:30:25;;;;;;;4.57;2.53;;;;;;;7.85;45.62;100193.31;1087953;54;20074;-83
2022/04/18 02:31:26;;;;;;;5.78;2.67;;;;;;;7.84;45.66;100183.66;1087920;54;20035;-81
2022/04/18 02:33:47;;;;;;;4.35;2.45;;;;;;;7.92;45.16;100180.38;1088423;54;20026;-83
2022/04/18 02:34:49;;;;;;;7.05;2.40;;;;;;;7.94;45.23;100181.94;1088280;54;20022;-82
2022/04/18 02:35:53;;;;;;;5.78;2.95;;;;;;;7.92;46.02;100186.56;1088370;54;20057;-81
2022/04/18 02:36:55;;;;;;;4.57;2.60;;;;;;;7.92;45.72;100186.56;1088356;54;20031;-81
2022/04/18 02:37:59;;;;;;;5.63;2.53;;;;;;;7.89;45.84;100194.78;1090525;46;20035;-83
2022/04/18 02:39:03;;;;;;;5.32;2.65;;;;;;;7.88;46.54;100193.09;1088364;54;20038;-82
2022/04/18 02:40:09;;;;;;;4.93;2.70;;;;;;;7.91;46.12;100191.97;1088403;54;20025;-82
2022/04/18 02:41:11;;;;;;;5.40;2.65;;;;;;;7.89;46.51;100189.47;1088397;54;20019;-83
2022/04/18 02:42:15;;;;;;;4.90;2.90;;;;;;;7.80;47.14;100191.03;1088344;54;20042;-82
2022/04/18 02:43:25;;;;;;;6.05;3.40;;;;;;;7.75;47.74;100187.03;1088363;54;20745;-81
2022/04/18 02:44:34;;;;;;;6.15;2.95;;;;;;;7.67;47.73;100185.03;1088767;39;20515;-82
2022/04/18 02:45:38;;;;;;;7.32;3.60;;;;;;;7.61;48.09;100186.34;1088403;54;20015;-82
2022/04/18 02:46:40;;;;;;;5.93;3.20;;;;;;;7.60;48.51;100187.31;1088310;47;20014;-82
2022/04/18 02:47:44;;;;;;;6.18;3.50;;;;;;;7.62;48.24;100189.84;1088850;46;20033;-82
2022/04/18 02:48:46;;;;;;;6.13;3.33;;;;;;;7.52;48.56;100186.22;1088094;54;20058;-83
2022/04/18 02:49:51;;;;;;;6.40;3.35;;;;;;;7.42;48.94;100191.44;1088271;54;20042;-81
2022/04/18 02:50:56;;;;;;;5.53;3.25;;;;;;;7.44;48.99;100192.16;1088373;54;20090;-83
2022/04/18 02:51:57;;;;;;;6.18;3.42;;;;;;;7.44;48.66;100190.34;1088379;54;20025;-82
2022/04/18 02:53:01;;;;;;;6.57;3.47;;;;;;;7.37;49.15;100191.78;1088013;54;20734;-82
2022/04/18 02:54:05;;;;;;;5.22;3.30;;;;;;;7.29;49.28;100187.06;1087861;54;20057;-82
2022/04/18 02:55:11;;;;;;;8.35;3.40;;;;;;;7.31;49.15;100197.59;1087905;54;20058;-82
2022/04/18 02:56:13;;;;;;;5.35;2.90;;;;;;;7.29;49.10;100192.38;1087952;54;20061;-81
2022/04/18 02:57:17;;;;;;;7.15;3.50;;;;;;;7.23;49.23;100192.88;1087483;54;20037;-83
2022/04/18 02:58:19;;;;;;;5.10;2.78;;;;;;;7.27;49.23;100188.16;1087875;54;20035;-81
2022/04/18 02:59:23;;;;;;;4.93;2.80;;;;;;;7.30;49.20;100186.09;1087873;54;20046;-82
2022/04/18 03:00:25;;;;;;;5.68;3.15;;;;;;;7.32;49.23;100191.31;1087907;54;20037;-81
2022/04/18 03:01:30;;;;;;;5.95;3.03;;;;;;;7.27;49.16;100189.03;1087915;54;20050;-81
2022/04/18 03:02:31;;;;;;;7.13;3.05;;;;;;;7.30;49.16;100188.78;1087822;54;20031;-81
2022/04/18 03:03:36;;;;;;;4.80;2.45;;;;;;;7.31;49.07;100187.81;1087848;54;20034;-82
2022/04/18 03:04:37;;;;;;;6.22;3.00;;;;;;;7.08;49.90;100181.63;1087655;54;20038;-81
2022/04/18 03:05:41;;;;;;;6.90;3.88;;;;;;;6.97;50.40;100177.16;1087740;54;20034;-82
2022/04/18 03:06:43;;;;;;;6.43;3.75;;;;;;;6.82;50.77;100179.16;1087995;54;20035;-83
2022/04/18 03:07:47;;;;;;;6.85;3.70;;;;;;;6.77;51.16;100175.16;1087864;54;20035;-81
2022/04/18 03:08:48;;;;;;;6.97;3.80;;;;;;;6.66;51.82;100182.13;1087920;54;20046;-82
2022/04/18 03:09:55;;;;;;;13.45;4.30;;;;;;;6.66;51.90;100178.66;1087619;54;20034;-82
2022/04/18 03:11:03;;;;;;;6.53;4.40;;;;;;;6.51;52.39;100186.78;1087846;54;20042;-81
2022/04/18 03:12:09;;;;;;;9.27;4.28;;;;;;;6.36;52.96;100186.13;1087870;54;20026;-82
2022/04/18 03:13:10;;;;;;;7.43;4.60;;;;;;;6.35;53.12;100183.59;1087875;54;20090;-82
2022/04/18 03:14:15;;;;;;;8.80;4.13;;;;;;;6.39;52.99;100179.75;1087879;54;20046;-82
2022/04/18 03:15:19;;;;;;;8.70;4.32;;;;;;;6.26;53.53;100176.31;1088263;54;20054;-82
2022/04/18 03:16:20;;;;;;;6.85;3.72;;;;;;;6.31;53.39;100180.34;1088253;54;20649;-83
2022/04/18 03:17:25;;;;;;;8.07;4.55;;;;;;;6.29;53.51;100174.28;1088109;54;20741;-81
2022/04/18 03:18:26;;;;;;;7.93;4.10;;;;;;;6.36;53.17;100170.19;1088300;54;20035;-83
2022/04/18 03:19:30;;;;;;;6.68;4.00;;;;;;;6.54;52.63;100172.44;1088203;54;20041;-80
2022/04/18 03:20:32;;;;;;;5.60;3.42;;;;;;;6.63;52.16;100179.72;1088182;54;20046;-83
2022/04/18 03:21:36;;;;;;;6.03;3.22;;;;;;;6.68;52.21;100158.97;1087833;54;20094;-81
2022/04/18 03:22:37;;;;;;;7.43;3.70;;;;;;;6.71;52.20;100166.69;1088167;54;20053;-81
2022/04/18 03:23:43;;;;;;;7.03;3.67;;;;;;;6.66;52.25;100160.06;1088300;54;20034;-81
2022/04/18 03:24:45;;;;;;;5.65;3.28;;;;;;;6.67;52.14;100159.94;1088228;54;20018;-81
2022/04/18 03:25:52;;;;;;;6.43;3.83;;;;;;;6.66;52.26;100157.41;1089745;39;20766;-83
2022/04/18 03:26:54;;;;;;;6.40;3.80;;;;;;;6.60;52.50;100158.72;1088317;54;20038;-81
2022/04/18 03:27:58;;;;;;;7.25;3.78;;;;;;;6.63;51.98;100165.59;1088284;54;20053;-81
2022/04/18 03:28:59;;;;;;;6.53;3.58;;;;;;;6.68;51.75;100151.00;1088212;54;20030;-81
2022/04/18 03:30:03;;;;;;;5.72;3.00;;;;;;;6.75;51.76;100163.81;1088293;54;20031;-82
2022/04/18 03:31:05;;;;;;;7.50;3.33;;;;;;;6.82;51.70;100159.69;1088298;54;20022;-82
2022/04/18 03:32:11;;;;;;;6.15;3.33;;;;;;;6.87;51.48;100166.34;1088271;54;20037;-81
2022/04/18 03:33:12;;;;;;;5.55;3.08;;;;;;;6.90;51.29;100159.97;1088286;54;20033;-81
2022/04/18 03:34:16;;;;;;;7.32;4.30;;;;;;;6.85;51.39;100162.13;1088144;54;20789;-82
2022/04/18 03:35:18;;;;;;;6.97;3.58;;;;;;;6.80;51.83;100159.84;1088245;54;20039;-80
2022/04/18 03:40:13;;;;;;;6.82;4.22;;;;;;;6.78;51.99;100155.59;1087871;54;20050;-81
2022/04/18 03:41:20;;;;;;;7.72;4.22;;;;;;;6.81;52.11;100156.22;1088559;46;20035;-83
2022/04/18 03:42:31;;;;;;;6.30;3.88;;;;;;;6.81;52.25;100152.69;1087840;54;20061;-81
2022/04/18 03:43:35;;;;;;;6.55;3.67;;;;;;;6.74;52.22;100157.66;1087837;54;20038;-81
2022/04/18 03:44:45;;;;;;;6.05;3.45;;;;;;;6.68;52.84;100151.00;1087705;54;20035;-82
2022/04/18 03:45:49;;;;;;;6.72;3.88;;;;;;;6.59;52.99;100154.34;1087829;54;20038;-83
2022/04/18 03:46:51;;;;;;;7.32;3.65;;;;;;;6.69;52.76;100152.69;1088234;54;20046;-82
2022/04/18 03:47:55;;;;;;;6.25;3.60;;;;;;;6.67;52.58;100143.13;1088219;54;20078;-81
2022/04/18 03:48:57;;;;;;;5.72;3.67;;;;;;;6.62;52.66;100162.06;1088246;54;20057;-81
2022/04/18 03:50:01;;;;;;;8.65;4.20;;;;;;;6.65;52.40;100155.69;1088175;54;20041;-82
2022/04/18 03:51:02;;;;;;;7.07;3.80;;;;;;;6.64;52.69;100149.53;1088252;54;20045;-82
2022/04/18 03:52:08;;;;;;;7.38;3.38;;;;;;;6.55;52.82;100156.41;1090312;46;20132;-81
2022/04/18 03:53:12;;;;;;;7.25;3.80;;;;;;;6.65;52.40;100151.22;1090699;39;20704;-83
2022/04/18 03:54:14;;;;;;;6.40;3.50;;;;;;;6.75;52.21;100142.53;1088163;54;20049;-82
2022/04/18 03:55:19;;;;;;;6.90;3.45;;;;;;;6.81;51.83;100156.22;1093255;39;20719;-83
2022/04/18 03:56:24;;;;;;;6.65;4.05;;;;;;;6.63;52.44;100150.47;1088326;47;20018;-83
2022/04/18 03:57:28;;;;;;;6.65;3.72;;;;;;;6.56;52.59;100157.22;1089940;46;20027;-82
2022/04/18 03:58:29;;;;;;;7.03;4.05;;;;;;;6.70;52.42;100154.38;1088272;54;20053;-84
2022/04/18 03:59:33;;;;;;;6.47;3.55;;;;;;;6.60;52.71;100153.38;1088142;54;20034;-83
2022/04/18 04:00:39;;;;;;;7.85;3.92;;;;;;;6.60;52.86;100158.72;1088278;54;20027;-82
2022/04/18 04:01:40;;;;;;;8.07;4.28;;;;;;;6.63;52.71;100155.78;1087862;54;20030;-81
2022/04/18 04:02:45;;;;;;;7.28;3.97;;;;;;;6.67;52.70;100148.44;1087985;54;20033;-82
2022/04/18 04:03:47;;;;;;;7.07;3.90;;;;;;;6.70;52.45;100149.06;1089041;46;20029;-83
2022/04/18 04:04:51;;;;;;;7.32;4.18;;;;;;;6.72;52.20;100152.44;1088255;54;20037;-81
2022/04/18 04:05:53;;;;;;;7.07;3.88;;;;;;;6.75;52.17;100146.06;1088383;54;20042;-85
2022/04/18 04:06:58;;;;;;;8.50;3.92;;;;;;;6.66;52.18;100147.59;1088313;54;20034;-82
2022/04/18 04:07:59;;;;;;;7.82;4.45;;;;;;;6.29;53.51;100146.88;1088204;54;20039;-82
2022/04/18 04:09:03;;;;;;;11.85;4.93;;;;;;;6.18;53.80;100145.88;1093281;39;20551;-82
2022/04/18 04:10:09;;;;;;;8.25;4.80;;;;;;;6.22;53.85;100149.97;1088175;54;20752;-83
2022/04/18 04:11:11;;;;;;;8.35;4.03;;;;;;;6.23;53.91;100150.84;1088302;54;20655;-84
2022/04/18 04:12:24;;;;;;;9.32;4.60;;;;;;;6.15;54.41;100153.19;1088228;54;20015;-84
2022/04/18 04:13:26;;;;;;;7.72;4.45;;;;;;;6.07;54.35;100151.13;1089222;46;20030;-83
2022/04/18 04:14:30;;;;;;;7.97;4.80;;;;;;;6.05;54.15;100153.88;1088395;46;20034;-84
2022/04/18 04:15:32;;;;;;;7.95;4.50;;;;;;;6.13;54.16;100152.50;1088155;54;20030;-83
2022/04/18 04:16:37;;;;;;;6.35;4.32;;;;;;;6.15;54.12;100155.84;1088216;54;20023;-83
2022/04/18 04:17:40;;;;;;;7.70;4.78;;;;;;;6.09;54.11;100147.41;1090093;46;20057;-82
2022/04/18 04:18:44;;;;;;;7.55;4.70;;;;;;;6.12;53.85;100156.94;1087771;54;20030;-83
2022/04/18 04:19:48;;;;;;;8.57;4.40;;;;;;;6.17;53.72;100151.28;1088090;54;20014;-82
2022/04/18 04:20:50;;;;;;;8.45;4.40;;;;;;;6.19;53.34;100160.81;1088240;54;20034;-83
2022/04/18 04:21:54;;;;;;;6.75;4.25;;;;;;;6.11;53.61;100146.44;1088224;54;20030;-82
2022/04/18 04:22:56;;;;;;;6.60;4.25;;;;;;;6.15;53.26;100148.75;1088105;54;20018;-82
2022/04/18 04:24:00;;;;;;;10.50;4.53;;;;;;;6.13;53.27;100147.19;1087886;54;20035;-84
2022/04/18 04:25:02;;;;;;;7.68;4.72;;;;;;;6.18;53.16;100150.31;1087724;54;20038;-82
2022/04/18 04:26:07;;;;;;;7.30;4.38;;;;;;;6.13;53.13;100149.84;1087813;54;20094;-83
2022/04/18 04:27:09;;;;;;;6.47;3.72;;;;;;;6.13;53.06;100155.97;1087749;54;20064;-82
2022/04/18 04:28:15;;;;;;;6.20;3.80;;;;;;;6.15;52.96;100150.53;1087746;54;20114;-82
2022/04/18 04:29:20;;;;;;;6.03;3.97;;;;;;;6.14;52.82;100149.72;1087749;54;20057;-82
2022/04/18 04:30:22;;;;;;;8.38;4.28;;;;;;;6.14;52.97;100149.72;1087738;54;20043;-82
2022/04/18 04:31:26;;;;;;;6.75;4.03;;;;;;;6.16;52.89;100147.81;1088273;46;20042;-83
2022/04/18 04:32:27;;;;;;;6.35;3.70;;;;;;;6.17;52.86;100146.84;1092067;39;20672;-84
2022/04/18 04:33:32;;;;;;;7.13;4.20;;;;;;;6.03;53.28;100160.28;1088188;54;20040;-82
2022/04/18 04:34:37;;;;;;;6.90;3.80;;;;;;;6.04;53.29;100152.22;1089955;46;20065;-83
2022/04/18 04:35:38;;;;;;;7.80;3.95;;;;;;;6.01;53.35;100146.25;1089730;46;20050;-84
2022/04/18 04:36:43;;;;;;;8.20;4.32;;;;;;;6.04;53.40;100152.22;1088271;54;20118;-84
2022/04/18 04:37:45;;;;;;;6.13;3.70;;;;;;;6.04;53.37;100154.88;1088283;54;20045;-83
2022/04/18 04:38:49;;;;;;;8.27;4.60;;;;;;;6.04;53.27;100151.34;1090001;46;20038;-83
2022/04/18 04:39:50;;;;;;;7.55;4.22;;;;;;;6.02;53.33;100151.47;1088186;54;20061;-82
2022/04/18 04:40:55;;;;;;;7.07;4.05;;;;;;;6.07;53.50;100149.31;1088149;54;20034;-83
2022/04/18 04:41:57;;;;;;;5.93;3.50;;;;;;;6.05;53.40;100148.56;1088007;54;20050;-83
2022/04/18 04:43:01;;;;;;;6.80;3.80;;;;;;;6.05;53.18;100145.91;1087908;54;20041;-83
2022/04/18 04:44:09;;;;;;;6.93;3.63;;;;;;;6.06;53.38;100144.97;1090051;39;20657;-85
2022/04/18 04:45:11;;;;;;;6.90;3.63;;;;;;;6.04;53.32;100152.22;1088330;54;20030;-82
2022/04/18 04:46:15;;;;;;;7.43;3.85;;;;;;;6.07;53.39;100146.66;1088232;54;20026;-84
2022/04/18 04:47:17;;;;;;;6.95;4.28;;;;;;;6.06;53.47;100139.66;1088232;54;20062;-84
2022/04/18 04:48:21;;;;;;;6.93;3.70;;;;;;;6.07;53.44;100144.00;1088267;54;20122;-84
2022/04/18 04:49:25;;;;;;;5.70;3.50;;;;;;;6.08;53.38;100144.88;1088044;54;20041;-85
2022/04/18 04:50:26;;;;;;;6.38;3.90;;;;;;;6.13;53.25;100141.88;1088239;54;20038;-82
2022/04/18 04:51:31;;;;;;;6.78;3.35;;;;;;;6.13;53.19;100144.53;1088035;54;20041;-84
2022/04/18 04:52:32;;;;;;;7.10;3.85;;;;;;;6.15;53.43;100150.53;1088180;54;20034;-83
2022/04/18 04:53:37;;;;;;;5.43;3.30;;;;;;;6.14;53.49;100148.88;1088312;54;20034;-83
2022/04/18 04:54:39;;;;;;;7.00;4.03;;;;;;;6.07;53.81;100156.44;1088177;54;20039;-83
2022/04/18 04:55:43;;;;;;;6.85;3.70;;;;;;;6.04;53.81;100149.56;1088379;54;20034;-84
2022/04/18 04:56:47;;;;;;;6.95;4.03;;;;;;;6.05;53.72;100150.38;1088072;54;20041;-82
2022/04/18 04:57:48;;;;;;;10.25;5.30;;;;;;;6.06;53.78;100150.28;1087857;54;20042;-83
2022/04/18 04:58:53;;;;;;;7.35;4.20;;;;;;;6.03;54.01;100152.31;1088015;54;20693;-83
2022/04/18 04:59:57;;;;;;;9.50;4.57;;;;;;;5.98;54.23;100152.63;1088015;54;20758;-82
2022/04/18 05:01:02;;;;;;;9.57;4.90;;;;;;;5.97;53.97;100145.59;1088025;54;20041;-85
2022/04/18 05:02:05;;;;;;;8.45;4.20;;;;;;;6.02;53.94;100148.81;1087959;54;20030;-85
2022/04/18 05:03:09;;;;;;;8.25;3.90;;;;;;;6.05;53.91;100159.19;1091264;46;20038;-83
2022/04/18 05:04:14;;;;;;;6.97;4.40;;;;;;;6.05;53.91;100145.91;1087976;54;20042;-82
2022/04/18 05:05:15;;;;;;;5.75;3.47;;;;;;;6.13;53.58;100147.19;1087996;54;20039;-83
2022/04/18 05:06:19;;;;;;;6.28;3.70;;;;;;;6.15;53.62;100148.75;1088156;54;20030;-83
2022/04/18 05:07:21;;;;;;;6.32;3.80;;;;;;;6.19;53.41;100154.69;1089557;47;20031;-85
2022/04/18 05:08:25;;;;;;;5.93;3.53;;;;;;;6.21;53.47;100155.41;1088027;54;20035;-84